Time;durP1;ratioP1;P1;durP2;ratioP2;P2;SDS_P1;SDS_P2;PMS_P1;PMS_P2;Temp;Humidity;BMP_temperature;BMP_pressure;BME280_temperature;BME280_humidity;BME280_pressure;Samples;Min_cycle;Max_cycle;Signal;HPM_P1;HPM_P2
2023/03/17 00:00:09;;;;;;;7.30;5.73;;;;;;;;;;4451133;32;315600;-89
2023/03/17 00:02:36;;;;;;;6.93;5.33;;;;;;;;;;4436763;32;415778;-90
2023/03/17 00:05:03;;;;;;;7.80;5.70;;;;;;;;;;4451955;32;315768;-91
2023/03/17 00:07:31;;;;;;;9.80;6.57;;;;;;;;;;4446214;32;315803;-90
2023/03/17 00:09:58;;;;;;;9.07;6.40;;;;;;;;;;4452533;32;335623;-91
2023/03/17 00:12:25;;;;;;;9.30;6.83;;;;;;;;;;4442225;32;315650;-91
2023/03/17 00:14:52;;;;;;;14.77;7.90;;;;;;;;;;4451117;32;315495;-91
2023/03/17 00:17:19;;;;;;;14.30;7.70;;;;;;;;;;4440862;32;317324;-90
2023/03/17 00:19:46;;;;;;;11.83;7.33;;;;;;;;;;4450565;32;316432;-91
2023/03/17 00:22:17;;;;;;;9.83;6.30;;;;;;;;;;4441531;32;317044;-90
2023/03/17 00:24:45;;;;;;;11.20;8.47;;;;;;;;;;4452218;32;315540;-90
2023/03/17 00:27:14;;;;;;;11.87;7.93;;;;;;;;;;4441560;32;316889;-91
2023/03/17 00:29:41;;;;;;;11.13;7.37;;;;;;;;;;4450457;32;317415;-91
2023/03/17 00:32:15;;;;;;;13.70;8.50;;;;;;;;;;4453637;32;316963;-90
2023/03/17 00:34:42;;;;;;;25.30;8.87;;;;;;;;;;4437939;32;416296;-91
2023/03/17 00:37:12;;;;;;;11.57;8.47;;;;;;;;;;4452596;32;316780;-90
2023/03/17 00:39:40;;;;;;;9.50;7.00;;;;;;;;;;4440705;32;416400;-92
2023/03/17 00:42:09;;;;;;;8.07;5.57;;;;;;;;;;4453662;32;315234;-90
2023/03/17 00:44:36;;;;;;;6.93;5.03;;;;;;;;;;4441062;32;413465;-90
2023/03/17 00:47:03;;;;;;;10.07;5.60;;;;;;;;;;4453546;32;316192;-92
2023/03/17 00:49:30;;;;;;;6.67;4.40;;;;;;;;;;4443602;32;316375;-91
2023/03/17 00:51:56;;;;;;;5.97;4.50;;;;;;;;;;4452235;32;316088;-91
2023/03/17 00:54:23;;;;;;;5.97;4.80;;;;;;;;;;4441003;32;315607;-91
2023/03/17 00:56:52;;;;;;;6.97;3.93;;;;;;;;;;4449358;32;316351;-91
2023/03/17 00:59:24;;;;;;;7.10;5.30;;;;;;;;;;4440709;32;315662;-91
2023/03/17 01:01:52;;;;;;;6.30;4.90;;;;;;;;;;4448813;32;345078;-91
2023/03/17 01:04:19;;;;;;;12.70;7.40;;;;;;;;;;4440555;32;315577;-91
2023/03/17 01:06:46;;;;;;;6.07;5.30;;;;;;;;;;4450248;32;317298;-90
2023/03/17 01:09:15;;;;;;;8.60;4.90;;;;;;;;;;4438830;32;316547;-91
2023/03/17 01:11:42;;;;;;;8.13;5.50;;;;;;;;;;4450562;32;315371;-91
2023/03/17 01:14:10;;;;;;;6.47;5.17;;;;;;;;;;4446451;32;315510;-91
2023/03/17 01:16:40;;;;;;;5.53;4.13;;;;;;;;;;4450292;32;315596;-91
2023/03/17 01:19:07;;;;;;;6.20;4.50;;;;;;;;;;4451118;32;315474;-91
2023/03/17 01:21:34;;;;;;;10.57;5.87;;;;;;;;;;4440646;32;315346;-91
2023/03/17 01:24:01;;;;;;;7.93;5.20;;;;;;;;;;4455321;32;316417;-90
2023/03/17 01:26:28;;;;;;;7.83;5.37;;;;;;;;;;4449138;32;315471;-93
2023/03/17 01:28:55;;;;;;;5.53;4.97;;;;;;;;;;4451330;32;315625;-90
2023/03/17 01:31:23;;;;;;;5.37;4.80;;;;;;;;;;4446192;32;315753;-93
2023/03/17 01:33:53;;;;;;;48.33;26.73;;;;;;;;;;4459497;32;315241;-90
2023/03/17 01:36:20;;;;;;;11.87;7.87;;;;;;;;;;4448928;32;317738;-90
2023/03/17 01:38:49;;;;;;;21.03;4.83;;;;;;;;;;4451899;32;317376;-91
2023/03/17 01:41:16;;;;;;;5.97;4.77;;;;;;;;;;4441569;32;316559;-90
2023/03/17 01:43:43;;;;;;;7.00;4.67;;;;;;;;;;4450873;32;316148;-91
2023/03/17 01:46:28;;;;;;;13.17;7.17;;;;;;;;;;4439747;32;315582;-91
2023/03/17 01:49:12;;;;;;;6.60;5.07;;;;;;;;;;4450950;32;316549;-91
2023/03/17 01:51:45;;;;;;;7.73;5.10;;;;;;;;;;4438016;32;414898;-91
2023/03/17 01:54:16;;;;;;;6.07;4.60;;;;;;;;;;4441229;32;316637;-90
2023/03/17 01:56:47;;;;;;;10.10;4.27;;;;;;;;;;4449932;32;316292;-91
2023/03/17 01:59:19;;;;;;;5.67;4.10;;;;;;;;;;4436911;32;350143;-91
2023/03/17 02:01:49;;;;;;;7.77;4.33;;;;;;;;;;4449797;32;316173;-91
2023/03/17 02:04:19;;;;;;;7.17;5.13;;;;;;;;;;4440540;32;315508;-90
2023/03/17 02:06:49;;;;;;;7.50;5.70;;;;;;;;;;4450214;32;315425;-91
2023/03/17 02:09:17;;;;;;;8.00;5.57;;;;;;;;;;4439357;32;316177;-91
2023/03/17 02:11:45;;;;;;;6.67;4.70;;;;;;;;;;4449554;32;315575;-91
2023/03/17 02:14:12;;;;;;;6.67;5.40;;;;;;;;;;4439743;32;315837;-91
2023/03/17 02:16:39;;;;;;;11.37;6.93;;;;;;;;;;4449827;32;315660;-91
2023/03/17 02:19:05;;;;;;;12.20;8.07;;;;;;;;;;4448445;32;316604;-90
2023/03/17 02:21:44;;;;;;;14.23;8.30;;;;;;;;;;4438867;32;317429;-90
2023/03/17 02:24:19;;;;;;;10.13;7.13;;;;;;;;;;4438642;32;316480;-91
2023/03/17 02:26:48;;;;;;;10.33;6.97;;;;;;;;;;4451081;32;316929;-91
2023/03/17 02:29:16;;;;;;;16.53;8.87;;;;;;;;;;4440654;32;316666;-90
2023/03/17 02:31:44;;;;;;;7.90;5.80;;;;;;;;;;4449986;32;317494;-91
2023/03/17 02:34:11;;;;;;;7.50;5.60;;;;;;;;;;4444001;32;315562;-91
2023/03/17 02:36:38;;;;;;;12.03;6.67;;;;;;;;;;4455831;32;315406;-91
2023/03/17 02:39:07;;;;;;;8.70;6.57;;;;;;;;;;4453760;32;317143;-91
2023/03/17 02:41:34;;;;;;;8.73;6.07;;;;;;;;;;4446470;32;316284;-91
2023/03/17 02:44:01;;;;;;;6.37;3.77;;;;;;;;;;4457351;32;315359;-90
2023/03/17 02:46:28;;;;;;;6.87;5.00;;;;;;;;;;4450186;32;315438;-91
2023/03/17 02:48:59;;;;;;;6.57;4.80;;;;;;;;;;4460054;32;315415;-90
2023/03/17 02:51:26;;;;;;;10.87;5.63;;;;;;;;;;4450783;32;315249;-91
2023/03/17 02:53:53;;;;;;;5.57;4.20;;;;;;;;;;4459502;32;316252;-91
2023/03/17 02:56:21;;;;;;;5.10;4.20;;;;;;;;;;4448179;32;315815;-90
2023/03/17 02:58:48;;;;;;;7.43;4.57;;;;;;;;;;4455964;32;316029;-92
2023/03/17 03:01:15;;;;;;;6.23;3.97;;;;;;;;;;4445132;32;315584;-93
2023/03/17 03:03:42;;;;;;;6.00;4.27;;;;;;;;;;4453878;32;315485;-92
2023/03/17 03:06:09;;;;;;;6.50;4.40;;;;;;;;;;4454468;32;315389;-89
2023/03/17 03:08:36;;;;;;;8.47;3.90;;;;;;;;;;4441738;32;413669;-91
2023/03/17 03:11:03;;;;;;;6.03;4.10;;;;;;;;;;4456313;32;315330;-93
2023/03/17 03:13:32;;;;;;;5.50;4.37;;;;;;;;;;4443675;32;315462;-92
2023/03/17 03:15:59;;;;;;;6.37;4.40;;;;;;;;;;4455602;32;316061;-91
2023/03/17 03:18:26;;;;;;;5.47;3.57;;;;;;;;;;4444153;32;315747;-90
2023/03/17 03:20:53;;;;;;;9.70;3.93;;;;;;;;;;4455989;32;316239;-90
2023/03/17 03:23:20;;;;;;;5.23;4.20;;;;;;;;;;4451407;32;315516;-92
2023/03/17 03:25:47;;;;;;;4.40;3.20;;;;;;;;;;4460323;32;314072;-92
2023/03/17 03:28:17;;;;;;;4.83;3.13;;;;;;;;;;4446070;32;315613;-90
2023/03/17 03:30:46;;;;;;;5.40;3.27;;;;;;;;;;4460769;32;316061;-90
2023/03/17 03:33:13;;;;;;;4.70;4.03;;;;;;;;;;4446553;32;316048;-90
2023/03/17 03:35:41;;;;;;;5.97;3.80;;;;;;;;;;4457915;32;315443;-93
2023/03/17 03:38:09;;;;;;;6.40;4.70;;;;;;;;;;4453114;32;315415;-90
2023/03/17 03:40:36;;;;;;;7.63;5.37;;;;;;;;;;4437884;32;418486;-91
2023/03/17 03:43:04;;;;;;;6.80;4.00;;;;;;;;;;4451122;32;335241;-92
2023/03/17 03:45:31;;;;;;;4.97;4.10;;;;;;;;;;4440765;32;316159;-90
2023/03/17 03:47:59;;;;;;;8.27;4.97;;;;;;;;;;4451956;32;315664;-90
2023/03/17 03:50:26;;;;;;;7.80;5.87;;;;;;;;;;4440800;32;332880;-92
2023/03/17 03:52:53;;;;;;;8.70;5.70;;;;;;;;;;4451794;32;316402;-90
2023/03/17 03:55:20;;;;;;;12.30;7.23;;;;;;;;;;4440952;32;316101;-90
2023/03/17 03:57:47;;;;;;;6.83;5.80;;;;;;;;;;4449496;32;316810;-90
2023/03/17 04:00:16;;;;;;;9.03;5.90;;;;;;;;;;4440245;32;315630;-92
2023/03/17 04:02:45;;;;;;;12.97;5.87;;;;;;;;;;4450897;32;315350;-93
2023/03/17 04:05:14;;;;;;;15.87;8.67;;;;;;;;;;4440734;32;316593;-92
2023/03/17 04:07:42;;;;;;;42.13;16.27;;;;;;;;;;4449880;32;316554;-90
2023/03/17 04:10:10;;;;;;;38.97;12.40;;;;;;;;;;4450037;32;318401;-93
2023/03/17 04:12:37;;;;;;;23.23;8.50;;;;;;;;;;4431729;32;420678;-90
2023/03/17 04:15:05;;;;;;;69.43;21.83;;;;;;;;;;4450747;32;317209;-90
2023/03/17 04:17:32;;;;;;;47.70;18.43;;;;;;;;;;4439007;32;317793;-91
2023/03/17 04:19:58;;;;;;;60.40;24.30;;;;;;;;;;4449631;32;317586;-91
2023/03/17 04:22:27;;;;;;;49.87;20.70;;;;;;;;;;4440561;32;317599;-91
2023/03/17 04:24:54;;;;;;;32.33;16.70;;;;;;;;;;4449570;32;317748;-90
2023/03/17 04:27:20;;;;;;;31.53;16.10;;;;;;;;;;4439623;32;344837;-90
2023/03/17 04:29:47;;;;;;;28.83;14.87;;;;;;;;;;4450877;32;317780;-92
2023/03/17 04:32:14;;;;;;;17.40;9.47;;;;;;;;;;4443032;32;317495;-92
2023/03/17 04:34:42;;;;;;;18.57;9.37;;;;;;;;;;4451694;32;316569;-91
2023/03/17 04:37:12;;;;;;;13.63;7.10;;;;;;;;;;4450352;32;316745;-90
2023/03/17 04:39:40;;;;;;;10.27;6.13;;;;;;;;;;4436517;32;409638;-90
2023/03/17 04:42:08;;;;;;;9.70;6.03;;;;;;;;;;4451833;32;317483;-90
2023/03/17 04:44:35;;;;;;;8.33;5.70;;;;;;;;;;4437676;32;411902;-92
2023/03/17 04:47:02;;;;;;;7.73;4.93;;;;;;;;;;4450040;32;316562;-92
2023/03/17 04:49:29;;;;;;;9.37;6.10;;;;;;;;;;4439603;32;315541;-92
2023/03/17 04:51:56;;;;;;;12.17;7.47;;;;;;;;;;4449002;32;315835;-90
2023/03/17 04:54:23;;;;;;;10.40;6.43;;;;;;;;;;4439109;32;352592;-90
2023/03/17 04:56:51;;;;;;;9.17;5.07;;;;;;;;;;4449654;32;317324;-90
2023/03/17 04:59:19;;;;;;;8.10;5.80;;;;;;;;;;4441370;32;315953;-90
2023/03/17 05:01:46;;;;;;;10.07;6.47;;;;;;;;;;4452799;32;316113;-91
2023/03/17 05:04:13;;;;;;;11.53;7.43;;;;;;;;;;4444299;32;317591;-90
2023/03/17 05:06:40;;;;;;;20.37;13.10;;;;;;;;;;4458406;32;316581;-90
2023/03/17 05:09:07;;;;;;;19.73;12.87;;;;;;;;;;4463852;32;318162;-91
2023/03/17 05:11:34;;;;;;;13.77;10.07;;;;;;;;;;4454218;32;316325;-90
2023/03/17 05:14:02;;;;;;;14.97;9.73;;;;;;;;;;4463842;32;317991;-90
2023/03/17 05:16:29;;;;;;;11.43;7.53;;;;;;;;;;4454297;32;315268;-90
2023/03/17 05:18:55;;;;;;;9.93;7.77;;;;;;;;;;4463424;32;315212;-91
2023/03/17 05:21:24;;;;;;;13.80;7.80;;;;;;;;;;4454994;32;314200;-91
2023/03/17 05:23:51;;;;;;;14.33;8.33;;;;;;;;;;4464520;32;315250;-90
2023/03/17 05:26:18;;;;;;;13.73;8.13;;;;;;;;;;4453849;32;315176;-90
2023/03/17 05:28:45;;;;;;;25.13;15.33;;;;;;;;;;4463839;32;315245;-90
2023/03/17 05:31:13;;;;;;;35.33;17.70;;;;;;;;;;4451072;32;339979;-88
2023/03/17 05:33:40;;;;;;;32.20;12.60;;;;;;;;;;4462365;32;317809;-90
2023/03/17 05:36:07;;;;;;;57.47;20.90;;;;;;;;;;4462301;32;316950;-91
2023/03/17 05:38:34;;;;;;;90.87;28.47;;;;;;;;;;4449694;32;318057;-90
2023/03/17 05:41:02;;;;;;;84.60;31.27;;;;;;;;;;4462473;32;317365;-92
2023/03/17 05:43:30;;;;;;;52.50;22.53;;;;;;;;;;4449809;32;318227;-90
2023/03/17 05:45:56;;;;;;;22.87;11.87;;;;;;;;;;4459899;32;317979;-90
2023/03/17 05:48:25;;;;;;;13.20;8.33;;;;;;;;;;4449519;32;317095;-90
2023/03/17 05:50:52;;;;;;;12.47;9.03;;;;;;;;;;4456966;32;317302;-91
2023/03/17 05:53:19;;;;;;;9.47;5.87;;;;;;;;;;4442355;32;317326;-89
2023/03/17 05:55:47;;;;;;;8.53;6.20;;;;;;;;;;4450388;32;315445;-90
2023/03/17 05:58:15;;;;;;;9.27;6.53;;;;;;;;;;4440423;32;315674;-92
2023/03/17 06:00:42;;;;;;;9.60;7.33;;;;;;;;;;4450087;32;315296;-90
2023/03/17 06:03:09;;;;;;;7.77;6.33;;;;;;;;;;4450876;32;315653;-90
2023/03/17 06:05:38;;;;;;;10.60;5.90;;;;;;;;;;4437680;32;412903;-92
2023/03/17 06:08:05;;;;;;;5.93;4.70;;;;;;;;;;4446891;32;316700;-90
2023/03/17 06:10:32;;;;;;;7.03;5.10;;;;;;;;;;4439679;32;315969;-90
2023/03/17 06:13:00;;;;;;;5.33;3.33;;;;;;;;;;4450143;32;315642;-91
2023/03/17 06:15:27;;;;;;;10.80;5.53;;;;;;;;;;4439536;32;316479;-92
2023/03/17 06:17:54;;;;;;;6.17;3.13;;;;;;;;;;4449254;32;316448;-91
2023/03/17 06:20:21;;;;;;;6.20;4.37;;;;;;;;;;4441107;32;316011;-91
2023/03/17 06:22:49;;;;;;;5.07;4.07;;;;;;;;;;4449527;32;315309;-90
2023/03/17 06:25:16;;;;;;;5.97;4.40;;;;;;;;;;4440456;32;316220;-90
2023/03/17 06:27:43;;;;;;;3.80;2.83;;;;;;;;;;4449942;32;315816;-89
2023/03/17 06:30:12;;;;;;;4.30;3.00;;;;;;;;;;4439383;32;316349;-87
2023/03/17 06:32:39;;;;;;;4.87;3.17;;;;;;;;;;4449711;32;315503;-90
2023/03/17 06:35:06;;;;;;;4.57;1.93;;;;;;;;;;4449616;32;315646;-92
2023/03/17 06:37:34;;;;;;;2.93;2.20;;;;;;;;;;4440508;32;315777;-92
2023/03/17 06:40:03;;;;;;;3.37;2.50;;;;;;;;;;4451797;32;315423;-90
2023/03/17 06:42:30;;;;;;;2.30;2.10;;;;;;;;;;4446673;32;321521;-92
2023/03/17 06:44:57;;;;;;;2.10;1.90;;;;;;;;;;4460772;32;314243;-89
2023/03/17 06:47:24;;;;;;;3.40;2.60;;;;;;;;;;4449307;32;315999;-91
2023/03/17 06:49:51;;;;;;;4.90;2.67;;;;;;;;;;4457900;32;315392;-90
2023/03/17 06:52:18;;;;;;;3.33;2.47;;;;;;;;;;4447631;32;331490;-90
2023/03/17 06:54:45;;;;;;;3.93;2.70;;;;;;;;;;4460346;32;325346;-90
2023/03/17 06:57:13;;;;;;;7.97;3.80;;;;;;;;;;4423656;32;315562;-92
2023/03/17 06:59:40;;;;;;;5.43;2.20;;;;;;;;;;4450033;32;315476;-89
2023/03/17 07:02:07;;;;;;;3.43;2.87;;;;;;;;;;4448483;32;315378;-89
2023/03/17 07:04:36;;;;;;;5.17;2.97;;;;;;;;;;4439527;32;315662;-91
2023/03/17 07:07:04;;;;;;;6.50;3.03;;;;;;;;;;4449828;32;314958;-91
2023/03/17 07:09:34;;;;;;;3.93;3.53;;;;;;;;;;4439218;32;315639;-90
2023/03/17 07:12:03;;;;;;;4.73;3.30;;;;;;;;;;4435586;32;315447;-90
2023/03/17 07:14:34;;;;;;;4.60;3.47;;;;;;;;;;4441157;32;315480;-90
2023/03/17 07:17:02;;;;;;;3.47;2.70;;;;;;;;;;4448780;32;315925;-90
2023/03/17 07:19:31;;;;;;;4.80;2.33;;;;;;;;;;4440857;32;315417;-90
2023/03/17 07:21:58;;;;;;;4.70;3.10;;;;;;;;;;4454013;32;315908;-89
2023/03/17 07:24:26;;;;;;;5.70;5.00;;;;;;;;;;4420602;32;315794;-91
2023/03/17 07:26:53;;;;;;;5.60;3.83;;;;;;;;;;4452550;32;315448;-90
2023/03/17 07:29:20;;;;;;;6.40;3.80;;;;;;;;;;4426184;32;315607;-89
2023/03/17 07:31:49;;;;;;;7.33;5.90;;;;;;;;;;4447662;32;315104;-90
2023/03/17 07:34:16;;;;;;;7.90;5.47;;;;;;;;;;4443235;32;315621;-90
2023/03/17 07:36:43;;;;;;;16.77;3.70;;;;;;;;;;4453245;32;315179;-90
2023/03/17 07:39:11;;;;;;;7.93;3.30;;;;;;;;;;4448647;32;316361;-90
2023/03/17 07:41:38;;;;;;;2.37;1.83;;;;;;;;;;4450223;32;315460;-90
2023/03/17 07:44:05;;;;;;;2.30;2.10;;;;;;;;;;4450073;32;315316;-91
2023/03/17 07:46:32;;;;;;;2.90;2.30;;;;;;;;;;4441894;32;316081;-90
2023/03/17 07:49:02;;;;;;;7.57;4.30;;;;;;;;;;4449712;32;316146;-91
2023/03/17 07:51:29;;;;;;;3.03;2.60;;;;;;;;;;4441073;32;315550;-90
2023/03/17 07:54:02;;;;;;;3.83;3.17;;;;;;;;;;4451223;32;315332;-92
2023/03/17 07:56:29;;;;;;;5.43;4.40;;;;;;;;;;4440871;32;315325;-90
2023/03/17 07:58:57;;;;;;;3.30;2.50;;;;;;;;;;4450925;32;316178;-91
2023/03/17 08:01:25;;;;;;;2.50;1.77;;;;;;;;;;4440839;32;316390;-91
2023/03/17 08:03:52;;;;;;;10.07;7.23;;;;;;;;;;4449496;32;316048;-91
2023/03/17 08:06:21;;;;;;;22.43;12.20;;;;;;;;;;4439640;32;316975;-92
2023/03/17 08:08:48;;;;;;;8.60;6.90;;;;;;;;;;4451773;32;317599;-93
2023/03/17 08:11:15;;;;;;;4.33;3.23;;;;;;;;;;4440053;32;315560;-93
2023/03/17 08:13:42;;;;;;;11.27;9.00;;;;;;;;;;4450484;32;315428;-91
2023/03/17 08:16:09;;;;;;;13.30;7.93;;;;;;;;;;4448575;32;316381;-91
2023/03/17 08:18:37;;;;;;;15.47;8.73;;;;;;;;;;4437649;32;415903;-91
2023/03/17 08:21:05;;;;;;;19.83;12.30;;;;;;;;;;4450014;32;317506;-91
2023/03/17 08:23:33;;;;;;;10.37;6.33;;;;;;;;;;4439166;32;317746;-91
2023/03/17 08:26:02;;;;;;;4.47;3.37;;;;;;;;;;4449689;32;316395;-91
2023/03/17 08:28:29;;;;;;;23.30;13.43;;;;;;;;;;4440766;32;316045;-90
2023/03/17 08:31:07;;;;;;;16.00;8.50;;;;;;;;;;4450115;32;317781;-91
2023/03/17 08:33:34;;;;;;;9.37;6.40;;;;;;;;;;4440470;32;317678;-91
2023/03/17 08:36:05;;;;;;;4.30;2.73;;;;;;;;;;4452930;32;316206;-91
2023/03/17 08:38:33;;;;;;;4.13;2.90;;;;;;;;;;4450507;32;316769;-91
2023/03/17 08:41:01;;;;;;;11.03;6.60;;;;;;;;;;4459959;32;315033;-91
2023/03/17 08:43:28;;;;;;;15.50;9.37;;;;;;;;;;4448167;32;316154;-90
2023/03/17 08:46:02;;;;;;;5.97;4.20;;;;;;;;;;4461746;32;317299;-92
2023/03/17 08:48:32;;;;;;;6.97;5.63;;;;;;;;;;4452942;32;314990;-89
2023/03/17 08:50:59;;;;;;;4.83;3.10;;;;;;;;;;4459614;32;315160;-91
2023/03/17 08:53:27;;;;;;;10.87;8.27;;;;;;;;;;4441438;32;316449;-91
2023/03/17 08:55:57;;;;;;;5.53;4.13;;;;;;;;;;4452734;32;317153;-90
2023/03/17 08:58:24;;;;;;;22.07;6.80;;;;;;;;;;4441833;32;316566;-91
2023/03/17 09:00:51;;;;;;;6.97;4.20;;;;;;;;;;4448952;32;317674;-91
2023/03/17 09:03:19;;;;;;;2.43;1.80;;;;;;;;;;4438376;32;316651;-91
2023/03/17 09:05:46;;;;;;;6.27;2.47;;;;;;;;;;4448605;32;316582;-91
2023/03/17 09:08:13;;;;;;;10.80;3.93;;;;;;;;;;4438587;32;317206;-93
2023/03/17 09:10:40;;;;;;;4.87;3.70;;;;;;;;;;4448489;32;317940;-91
2023/03/17 09:13:09;;;;;;;4.90;3.83;;;;;;;;;;4448730;32;316678;-91
2023/03/17 09:15:36;;;;;;;11.17;4.93;;;;;;;;;;4436736;32;420307;-91
2023/03/17 09:18:03;;;;;;;4.47;3.53;;;;;;;;;;4450400;32;317511;-92
2023/03/17 09:20:31;;;;;;;6.80;3.90;;;;;;;;;;4438361;32;316861;-93
2023/03/17 09:22:59;;;;;;;4.80;3.17;;;;;;;;;;4447822;32;316956;-92
2023/03/17 09:25:26;;;;;;;2.67;2.23;;;;;;;;;;4440600;32;316536;-92
2023/03/17 09:27:53;;;;;;;1.97;1.80;;;;;;;;;;4450710;32;316431;-91
2023/03/17 09:30:22;;;;;;;4.33;2.50;;;;;;;;;;4438378;32;316848;-93
2023/03/17 09:32:49;;;;;;;4.80;3.70;;;;;;;;;;4447483;32;329657;-93
2023/03/17 09:35:16;;;;;;;3.80;2.90;;;;;;;;;;4440433;32;336988;-92
2023/03/17 09:37:43;;;;;;;2.70;2.20;;;;;;;;;;4450295;32;316236;-92
2023/03/17 09:40:16;;;;;;;4.00;3.60;;;;;;;;;;4439346;32;316774;-90
2023/03/17 09:42:56;;;;;;;9.67;7.53;;;;;;;;;;4447486;32;347793;-90
2023/03/17 09:45:31;;;;;;;3.57;3.10;;;;;;;;;;4439054;32;317274;-93
2023/03/17 09:48:28;;;;;;;3.70;2.40;;;;;;;;;;4448565;32;317203;-91
2023/03/17 09:51:03;;;;;;;4.07;2.70;;;;;;;;;;4428594;32;415845;-90
2023/03/17 09:53:34;;;;;;;2.40;2.13;;;;;;;;;;4438807;32;317481;-92
2023/03/17 09:56:07;;;;;;;5.10;3.33;;;;;;;;;;4448619;32;316578;-91
2023/03/17 09:58:36;;;;;;;3.63;2.30;;;;;;;;;;4440198;32;317192;-90
2023/03/17 10:01:06;;;;;;;2.20;1.93;;;;;;;;;;4452658;32;317260;-91
2023/03/17 10:03:34;;;;;;;5.97;4.20;;;;;;;;;;4439855;32;316466;-90
2023/03/17 10:06:22;;;;;;;5.67;4.20;;;;;;;;;;4451912;32;316235;-91
2023/03/17 10:08:55;;;;;;;7.67;5.37;;;;;;;;;;4437613;32;413324;-93
2023/03/17 10:11:33;;;;;;;6.13;4.60;;;;;;;;;;4439309;32;316668;-91
2023/03/17 10:14:03;;;;;;;2.67;2.20;;;;;;;;;;4449140;32;316608;-91
2023/03/17 10:16:40;;;;;;;6.33;4.67;;;;;;;;;;4437270;32;316443;-90
2023/03/17 10:19:16;;;;;;;9.77;7.47;;;;;;;;;;4449446;32;316235;-92
2023/03/17 10:21:49;;;;;;;4.30;3.13;;;;;;;;;;4435975;32;417219;-93
2023/03/17 10:24:16;;;;;;;2.43;2.23;;;;;;;;;;4438254;32;316810;-92
2023/03/17 10:26:48;;;;;;;5.00;2.67;;;;;;;;;;4449331;32;324053;-91
2023/03/17 10:29:20;;;;;;;2.23;2.03;;;;;;;;;;4441641;32;316524;-91
2023/03/17 10:31:48;;;;;;;3.07;2.07;;;;;;;;;;4451272;32;316783;-92
2023/03/17 10:34:17;;;;;;;5.60;1.87;;;;;;;;;;4439515;32;317064;-91
2023/03/17 10:36:46;;;;;;;1.83;1.50;;;;;;;;;;4448845;32;316612;-91
2023/03/17 10:39:15;;;;;;;2.40;2.20;;;;;;;;;;4439211;32;317202;-91
2023/03/17 10:41:51;;;;;;;3.77;2.90;;;;;;;;;;4449505;32;316813;-91
2023/03/17 10:44:28;;;;;;;3.10;2.50;;;;;;;;;;4431278;32;317345;-91
2023/03/17 10:46:56;;;;;;;2.83;2.20;;;;;;;;;;4440050;32;316669;-91
2023/03/17 10:49:27;;;;;;;5.13;4.13;;;;;;;;;;4441402;32;317075;-91
2023/03/17 10:51:54;;;;;;;5.43;2.83;;;;;;;;;;4447816;32;316626;-91
2023/03/17 10:54:25;;;;;;;4.53;2.73;;;;;;;;;;4441129;32;317490;-90
2023/03/17 10:57:00;;;;;;;3.77;2.77;;;;;;;;;;4457256;32;316200;-90
2023/03/17 10:59:30;;;;;;;3.97;2.90;;;;;;;;;;4446011;32;316483;-91
2023/03/17 11:02:01;;;;;;;19.47;11.43;;;;;;;;;;4458103;32;316312;-90
2023/03/17 11:04:31;;;;;;;19.37;12.23;;;;;;;;;;4446326;32;319275;-89
2023/03/17 11:07:00;;;;;;;14.90;9.37;;;;;;;;;;4455178;32;318515;-90
2023/03/17 11:09:34;;;;;;;7.07;5.13;;;;;;;;;;4440091;32;318589;-91
2023/03/17 11:12:03;;;;;;;8.77;6.10;;;;;;;;;;4452283;32;316416;-89
2023/03/17 11:14:30;;;;;;;14.50;8.07;;;;;;;;;;4439998;32;317071;-91
2023/03/17 11:19:53;;;;;;;25.57;13.07;;;;;;;;;;4441196;32;387976;-90
2023/03/17 11:22:28;;;;;;;13.40;7.20;;;;;;;;;;4442186;32;318741;-89
2023/03/17 11:25:03;;;;;;;20.73;9.87;;;;;;;;;;4451901;32;317691;-90
2023/03/17 11:27:32;;;;;;;25.98;15.65;;;;;;;;;;4442181;32;321577;-90
2023/03/17 11:30:15;;;;;;;16.90;10.77;;;;;;;;;;4451259;32;319514;-90
2023/03/17 11:32:51;;;;;;;12.20;9.90;;;;;;;;;;4438719;32;419450;-90
2023/03/17 11:35:44;;;;;;;12.90;4.53;;;;;;;;;;4441794;32;318408;-90
2023/03/17 11:38:23;;;;;;;9.40;4.07;;;;;;;;;;4441918;32;317534;-92
2023/03/17 11:41:09;;;;;;;10.00;6.13;;;;;;;;;;4451227;32;317341;-89
2023/03/17 11:43:48;;;;;;;7.43;4.57;;;;;;;;;;4436946;32;418293;-90
2023/03/17 11:46:23;;;;;;;12.37;3.60;;;;;;;;;;4439210;32;316469;-90
2023/03/17 11:48:56;;;;;;;8.03;5.33;;;;;;;;;;4450917;32;317275;-90
2023/03/17 11:51:29;;;;;;;10.07;6.90;;;;;;;;;;4439700;32;316620;-91
2023/03/17 11:54:13;;;;;;;8.23;6.60;;;;;;;;;;4450431;32;318208;-90
2023/03/17 11:56:45;;;;;;;10.63;6.83;;;;;;;;;;4436676;32;418269;-91
2023/03/17 11:59:18;;;;;;;14.30;6.97;;;;;;;;;;4439776;32;318285;-90
2023/03/17 12:01:53;;;;;;;13.93;7.00;;;;;;;;;;4450263;32;347056;-91
2023/03/17 12:04:29;;;;;;;19.83;8.37;;;;;;;;;;4437452;32;356051;-91
2023/03/17 12:07:03;;;;;;;10.73;5.17;;;;;;;;;;4450882;32;318074;-91
2023/03/17 12:09:33;;;;;;;9.63;4.90;;;;;;;;;;4440513;32;318143;-91
2023/03/17 12:12:01;;;;;;;6.67;4.10;;;;;;;;;;4451147;32;316848;-91
2023/03/17 12:14:31;;;;;;;5.10;3.53;;;;;;;;;;4440047;32;316519;-91
2023/03/17 12:17:08;;;;;;;4.83;3.17;;;;;;;;;;4450199;32;316399;-91
2023/03/17 12:19:47;;;;;;;4.63;3.47;;;;;;;;;;4441137;32;316665;-90
2023/03/17 12:22:22;;;;;;;13.60;7.00;;;;;;;;;;4441069;32;317180;-90
2023/03/17 12:24:58;;;;;;;14.17;6.80;;;;;;;;;;4450943;32;317839;-90
2023/03/17 12:27:28;;;;;;;7.33;5.53;;;;;;;;;;4441528;32;318125;-90
2023/03/17 12:29:59;;;;;;;9.20;5.87;;;;;;;;;;4452112;32;334325;-90
2023/03/17 12:32:33;;;;;;;11.90;8.00;;;;;;;;;;4450009;32;316699;-91
2023/03/17 12:35:22;;;;;;;10.20;7.47;;;;;;;;;;4457866;32;316208;-90
2023/03/17 12:37:49;;;;;;;11.70;6.67;;;;;;;;;;4445039;32;420147;-90
2023/03/17 12:40:21;;;;;;;14.97;7.03;;;;;;;;;;4448165;32;317878;-89
2023/03/17 12:42:52;;;;;;;7.77;4.63;;;;;;;;;;4455365;32;317424;-91
2023/03/17 12:45:45;;;;;;;7.77;5.37;;;;;;;;;;4440943;32;316434;-89
2023/03/17 12:48:37;;;;;;;17.67;8.90;;;;;;;;;;4439310;32;316606;-90
2023/03/17 12:51:39;;;;;;;12.77;5.83;;;;;;;;;;4415194;32;317733;-90
2023/03/17 12:54:14;;;;;;;43.83;21.90;;;;;;;;;;4436541;32;417527;-89
2023/03/17 12:56:45;;;;;;;14.97;8.03;;;;;;;;;;4436438;32;419421;-90
2023/03/17 12:59:17;;;;;;;10.30;7.40;;;;;;;;;;4440664;32;318123;-90
2023/03/17 13:01:45;;;;;;;5.33;3.23;;;;;;;;;;4450709;32;318060;-88
2023/03/17 13:04:23;;;;;;;3.10;2.60;;;;;;;;;;4440160;32;316573;-89
2023/03/17 13:07:02;;;;;;;7.73;4.57;;;;;;;;;;4449200;32;316976;-89
2023/03/17 13:09:42;;;;;;;5.47;3.73;;;;;;;;;;4437542;32;316564;-89
2023/03/17 13:12:43;;;;;;;5.93;4.30;;;;;;;;;;4449473;32;316639;-89
2023/03/17 13:15:23;;;;;;;7.40;5.17;;;;;;;;;;4446139;32;417482;-90
2023/03/17 13:17:51;;;;;;;10.23;5.73;;;;;;;;;;4435766;32;417198;-90
2023/03/17 13:20:19;;;;;;;10.03;5.50;;;;;;;;;;4438333;32;343829;-90
2023/03/17 13:25:52;;;;;;;7.40;5.07;;;;;;;;;;4417512;32;20256;-79
2023/03/17 13:28:27;;;;;;;15.00;8.80;;;;;;;;;;4388268;32;315952;-79
2023/03/17 13:31:32;;;;;;;13.50;8.93;;;;;;;;;;4398134;32;316555;-80
2023/03/17 13:34:11;;;;;;;27.53;17.10;;;;;;;;;;4385391;32;418445;-80
2023/03/17 13:36:58;;;;;;;9.77;7.30;;;;;;;;;;4385070;32;419604;-81
2023/03/17 13:40:05;;;;;;;12.20;4.97;;;;;;;;;;4386628;32;317040;-80
2023/03/17 13:42:48;;;;;;;9.73;6.40;;;;;;;;;;4388565;32;317677;-81
2023/03/17 13:45:40;;;;;;;8.53;4.63;;;;;;;;;;4388197;32;316617;-80
2023/03/17 13:48:35;;;;;;;6.70;4.23;;;;;;;;;;4396501;32;340363;-81
2023/03/17 13:51:17;;;;;;;12.00;6.63;;;;;;;;;;4385900;32;419301;-81
2023/03/17 13:53:49;;;;;;;22.47;13.93;;;;;;;;;;4385628;32;418114;-81
2023/03/17 13:56:19;;;;;;;19.87;11.43;;;;;;;;;;4387863;32;318782;-81
2023/03/17 13:59:14;;;;;;;27.97;12.57;;;;;;;;;;4398951;32;318708;-81
2023/03/17 14:01:46;;;;;;;22.40;13.33;;;;;;;;;;4382105;32;390429;-80
2023/03/17 14:04:19;;;;;;;29.30;17.00;;;;;;;;;;4386994;32;318966;-81
2023/03/17 14:06:50;;;;;;;10.80;6.33;;;;;;;;;;4398864;32;317601;-81
2023/03/17 14:09:36;;;;;;;12.63;8.70;;;;;;;;;;4386577;32;318053;-80
2023/03/17 14:12:11;;;;;;;12.93;8.47;;;;;;;;;;4398021;32;337745;-81
2023/03/17 14:14:47;;;;;;;8.77;6.20;;;;;;;;;;4384273;32;388911;-82
2023/03/17 14:17:19;;;;;;;5.70;4.57;;;;;;;;;;4388155;32;316869;-82
2023/03/17 14:20:07;;;;;;;7.90;5.07;;;;;;;;;;4398275;32;316743;-84
2023/03/17 14:22:41;;;;;;;8.10;5.23;;;;;;;;;;4388775;32;316566;-80
2023/03/17 14:25:15;;;;;;;6.10;3.70;;;;;;;;;;4395568;32;316819;-82
2023/03/17 14:27:45;;;;;;;3.60;2.40;;;;;;;;;;4384838;32;416943;-81
2023/03/17 14:30:20;;;;;;;8.23;4.80;;;;;;;;;;4387615;32;316527;-81
2023/03/17 14:32:50;;;;;;;3.53;3.13;;;;;;;;;;4397475;32;316741;-81
2023/03/17 14:35:18;;;;;;;6.93;4.53;;;;;;;;;;4383400;32;316817;-80
2023/03/17 14:37:46;;;;;;;6.67;3.83;;;;;;;;;;4388305;32;316873;-81
2023/03/17 14:40:22;;;;;;;3.50;2.87;;;;;;;;;;4377542;32;316868;-81
2023/03/17 14:42:50;;;;;;;5.03;3.20;;;;;;;;;;4388295;32;315618;-82
2023/03/17 14:45:26;;;;;;;12.70;3.03;;;;;;;;;;4378307;32;316964;-81
2023/03/17 14:47:54;;;;;;;5.30;3.73;;;;;;;;;;4388471;32;318109;-82